createdAt,value
2023-12-22T00:00:35.638Z,10.10
2023-12-22T00:03:05.014Z,9.00
2023-12-22T00:05:32.641Z,9.70
2023-12-22T00:08:00.619Z,13.60
2023-12-22T00:10:28.371Z,8.70
2023-12-22T00:12:56.134Z,10.10
2023-12-22T00:15:23.892Z,8.80
2023-12-22T00:20:20.415Z,9.80
2023-12-22T00:22:48.152Z,10.50
2023-12-22T00:25:15.965Z,11.40
2023-12-22T00:30:12.092Z,9.40
2023-12-22T00:32:40.194Z,10.00
2023-12-22T00:35:08.689Z,8.10
2023-12-22T00:37:36.563Z,10.70
2023-12-22T00:40:09.466Z,9.60
2023-12-22T00:42:37.287Z,8.70
2023-12-22T00:47:32.928Z,9.10
2023-12-22T00:50:00.639Z,10.30
2023-12-22T00:54:56.296Z,7.80
2023-12-22T00:57:24.222Z,9.60
2023-12-22T01:04:48.123Z,9.60
2023-12-22T01:07:16.817Z,8.50
2023-12-22T01:09:45.153Z,8.30
2023-12-22T01:12:12.873Z,9.90
2023-12-22T01:14:40.739Z,9.70
2023-12-22T01:17:08.830Z,9.40
2023-12-22T01:19:36.402Z,18.10
2023-12-22T01:22:04.421Z,12.00
2023-12-22T01:27:00.693Z,10.10
2023-12-22T01:29:28.444Z,11.10
2023-12-22T01:34:24.456Z,12.10
2023-12-22T01:36:52.156Z,11.40
2023-12-22T01:44:15.084Z,10.30
2023-12-22T01:46:42.937Z,9.80
2023-12-22T01:49:10.684Z,13.60
2023-12-22T01:51:41.042Z,11.50
2023-12-22T01:54:08.918Z,12.10
2023-12-22T02:03:59.800Z,8.70
2023-12-22T02:06:27.493Z,12.20
2023-12-22T02:08:55.358Z,9.00
2023-12-22T02:11:23.134Z,11.50
2023-12-22T02:13:50.841Z,8.50
2023-12-22T02:16:31.104Z,9.60
2023-12-22T02:18:58.994Z,9.10
2023-12-22T02:23:55.897Z,10.60
2023-12-22T02:26:28.915Z,9.90
2023-12-22T02:28:57.657Z,11.90
2023-12-22T02:31:39.441Z,10.90
2023-12-22T02:34:09.405Z,10.30
2023-12-22T02:36:37.537Z,8.70
2023-12-22T02:39:05.596Z,7.90
2023-12-22T02:41:34.455Z,9.40
2023-12-22T02:44:03.025Z,10.70
2023-12-22T02:46:30.663Z,10.30
2023-12-22T02:48:58.646Z,11.30
2023-12-22T02:51:26.294Z,10.40
2023-12-22T02:53:56.333Z,11.60
2023-12-22T02:56:24.338Z,11.30
2023-12-22T02:58:52.050Z,12.10
2023-12-22T03:01:20.043Z,12.00
2023-12-22T03:03:47.745Z,11.40
2023-12-22T03:06:15.567Z,10.50
2023-12-22T03:11:11.529Z,8.60
2023-12-22T03:18:41.019Z,9.70
2023-12-22T03:21:10.398Z,10.70
2023-12-22T03:23:38.110Z,9.10
2023-12-22T03:26:06.063Z,8.80
2023-12-22T03:28:35.133Z,9.40
2023-12-22T03:31:03.072Z,10.60
2023-12-22T03:35:58.459Z,9.00
2023-12-22T03:38:26.042Z,8.60
2023-12-22T03:40:53.799Z,10.60
2023-12-22T03:45:51.153Z,9.40
2023-12-22T03:48:18.990Z,9.80
2023-12-22T03:58:11.987Z,8.30
2023-12-22T04:00:39.641Z,9.80
2023-12-22T04:03:07.339Z,10.00
2023-12-22T04:05:35.025Z,8.90
2023-12-22T04:08:02.895Z,7.80
2023-12-22T04:10:30.755Z,8.20
2023-12-22T04:20:22.033Z,12.00
2023-12-22T04:22:49.824Z,9.80
2023-12-22T04:27:46.380Z,8.50
2023-12-22T04:30:14.579Z,8.20
2023-12-22T04:32:42.543Z,9.70
2023-12-22T04:35:10.413Z,9.80
2023-12-22T04:37:38.033Z,9.90
2023-12-22T04:40:06.274Z,8.80
2023-12-22T04:42:33.917Z,9.50
2023-12-22T04:45:02.482Z,9.20
2023-12-22T04:47:30.430Z,9.00
2023-12-22T04:49:58.248Z,8.00
2023-12-22T04:52:25.928Z,8.70
2023-12-22T04:54:53.832Z,8.40
2023-12-22T04:59:50.896Z,8.60
2023-12-22T05:02:18.808Z,10.20
2023-12-22T05:04:46.457Z,10.10
2023-12-22T05:07:14.196Z,9.60
2023-12-22T05:09:47.517Z,9.00
2023-12-22T05:12:16.091Z,8.80
2023-12-22T05:14:43.829Z,8.90
2023-12-22T05:17:11.628Z,10.00
2023-12-22T05:22:07.508Z,10.20
2023-12-22T05:27:03.375Z,8.40
2023-12-22T05:29:31.015Z,10.00
2023-12-22T05:31:58.961Z,9.80
2023-12-22T05:34:27.043Z,8.80
2023-12-22T05:36:55.868Z,8.80
2023-12-22T05:39:23.745Z,11.60
2023-12-22T05:44:18.968Z,9.10
2023-12-22T05:46:46.829Z,9.60
2023-12-22T05:51:44.750Z,8.10
2023-12-22T05:54:13.042Z,10.80
2023-12-22T05:56:41.395Z,10.80
2023-12-22T05:59:09.176Z,8.10
2023-12-22T06:01:38.109Z,9.50
2023-12-22T06:04:07.159Z,8.60
2023-12-22T06:06:34.895Z,10.90
2023-12-22T06:09:02.646Z,9.10
2023-12-22T06:13:59.886Z,10.20
2023-12-22T06:16:28.197Z,10.70
2023-12-22T06:18:56.203Z,11.00
2023-12-22T06:26:20.249Z,9.00
2023-12-22T06:28:48.283Z,8.80
2023-12-22T06:31:22.826Z,9.60
2023-12-22T06:33:51.786Z,10.80
2023-12-22T06:36:23.432Z,11.20
2023-12-22T06:38:51.984Z,9.30
2023-12-22T06:41:27.846Z,11.70
2023-12-22T06:43:58.079Z,9.50
2023-12-22T06:46:28.904Z,8.80
2023-12-22T06:48:57.187Z,11.70
2023-12-22T06:51:27.522Z,9.90
2023-12-22T06:53:59.362Z,9.20
2023-12-22T06:56:31.895Z,10.40
2023-12-22T06:59:00.545Z,9.80
2023-12-22T07:01:30.642Z,9.80
2023-12-22T07:04:01.556Z,11.10
2023-12-22T07:06:35.258Z,8.40
2023-12-22T07:09:21.746Z,9.10
2023-12-22T07:11:54.134Z,10.60
2023-12-22T07:14:23.173Z,9.40
2023-12-22T07:16:52.810Z,11.50
2023-12-22T07:19:20.694Z,10.70
2023-12-22T07:24:17.261Z,17.10
2023-12-22T07:26:45.962Z,18.10
2023-12-22T07:29:15.349Z,13.90
2023-12-22T07:31:45.629Z,11.90
2023-12-22T07:34:14.979Z,12.90
2023-12-22T07:36:51.501Z,10.40
2023-12-22T07:39:27.923Z,10.50
2023-12-22T07:44:25.599Z,12.10
2023-12-22T07:47:01.707Z,11.50
2023-12-22T07:52:04.154Z,11.20
2023-12-22T07:54:32.016Z,10.80
2023-12-22T07:57:00.140Z,10.80
2023-12-22T07:59:31.356Z,11.30
2023-12-22T08:02:01.002Z,9.80
2023-12-22T08:04:29.312Z,9.90
2023-12-22T08:06:57.324Z,10.60
2023-12-22T08:09:25.044Z,7.80
2023-12-22T08:14:22.262Z,9.30
2023-12-22T08:16:51.017Z,11.60
2023-12-22T08:19:19.688Z,10.00
2023-12-22T08:21:49.828Z,9.60
2023-12-22T08:24:22.633Z,8.40
2023-12-22T08:26:52.545Z,9.90
2023-12-22T08:32:13.755Z,9.00
2023-12-22T08:34:41.640Z,9.60
2023-12-22T08:37:09.918Z,8.10
2023-12-22T08:39:37.765Z,9.20
2023-12-22T08:42:04.833Z,10.00
2023-12-22T08:44:31.605Z,9.00
2023-12-22T08:46:58.610Z,10.40
2023-12-22T08:49:26.341Z,10.80
2023-12-22T08:54:19.879Z,9.80
2023-12-22T08:56:48.357Z,9.00
2023-12-22T08:59:15.830Z,9.10
2023-12-22T09:01:43.551Z,11.00
2023-12-22T09:06:38.357Z,13.70
2023-12-22T09:09:05.429Z,12.30
2023-12-22T09:11:32.865Z,10.70
2023-12-22T09:14:02.465Z,11.20
2023-12-22T09:16:29.648Z,13.40
2023-12-22T09:18:57.168Z,9.00
2023-12-22T09:21:24.395Z,11.10
2023-12-22T09:23:51.881Z,9.80
2023-12-22T09:28:47.401Z,9.50
2023-12-22T09:31:16.863Z,10.10
2023-12-22T09:33:44.189Z,12.10
2023-12-22T09:36:12.502Z,10.00
2023-12-22T09:38:39.757Z,14.60
2023-12-22T09:41:06.592Z,11.30
2023-12-22T09:43:37.344Z,9.20
2023-12-22T09:46:06.012Z,8.40
2023-12-22T09:48:34.065Z,10.40
2023-12-22T09:51:02.999Z,9.70
2023-12-22T09:53:31.863Z,10.00
2023-12-22T09:55:58.845Z,10.90
2023-12-22T09:58:26.573Z,13.10
2023-12-22T10:00:55.411Z,10.90
2023-12-22T10:03:25.080Z,13.70
2023-12-22T10:05:52.674Z,11.30
2023-12-22T10:08:22.155Z,10.30
2023-12-22T10:10:53.252Z,14.40
2023-12-22T10:13:21.916Z,11.10
2023-12-22T10:15:49.239Z,12.80
2023-12-22T10:18:17.348Z,13.30
2023-12-22T10:20:44.472Z,10.30
2023-12-22T10:23:11.819Z,13.20
2023-12-22T10:25:40.920Z,10.60
2023-12-22T10:28:11.138Z,12.20
2023-12-22T10:30:38.834Z,11.00
2023-12-22T10:35:33.957Z,10.20
2023-12-22T10:38:03.619Z,12.00
2023-12-22T10:40:32.949Z,12.10
2023-12-22T10:42:59.920Z,12.40
2023-12-22T10:45:26.637Z,13.30
2023-12-22T10:47:54.142Z,11.50
2023-12-22T10:50:21.327Z,10.00
2023-12-22T10:52:51.714Z,9.90
2023-12-22T10:55:18.699Z,10.20
2023-12-22T10:57:48.942Z,13.30
2023-12-22T11:00:17.309Z,10.90
2023-12-22T11:02:44.534Z,13.00
2023-12-22T11:05:13.052Z,11.80
2023-12-22T11:07:40.137Z,10.80
2023-12-22T11:10:07.766Z,10.20
2023-12-22T11:12:38.545Z,10.70
2023-12-22T11:15:07.127Z,10.40
2023-12-22T11:17:40.518Z,12.70
2023-12-22T11:20:09.604Z,14.00
2023-12-22T11:22:36.970Z,13.40
2023-12-22T11:25:07.318Z,12.20
2023-12-22T11:27:34.716Z,12.20
2023-12-22T11:30:02.004Z,13.60
2023-12-22T11:32:29.961Z,12.70
2023-12-22T11:35:00.619Z,12.50
2023-12-22T11:37:28.561Z,11.00
2023-12-22T11:42:25.208Z,11.90
2023-12-22T11:44:56.109Z,10.80
2023-12-22T11:47:26.390Z,12.20
2023-12-22T11:49:54.096Z,11.60
2023-12-22T11:52:32.752Z,12.20
2023-12-22T11:55:01.302Z,10.70
2023-12-22T11:57:28.274Z,11.60
2023-12-22T11:59:56.423Z,12.50
2023-12-22T12:04:53.185Z,11.70
2023-12-22T12:07:39.842Z,11.10
2023-12-22T12:10:10.209Z,11.30
2023-12-22T12:12:37.276Z,25.00
2023-12-22T12:15:13.497Z,26.90
2023-12-22T12:17:42.963Z,44.60
2023-12-22T12:20:11.241Z,45.50
2023-12-22T12:22:39.704Z,21.30
2023-12-22T12:25:18.034Z,22.40
2023-12-22T12:27:49.225Z,23.90
2023-12-22T12:30:17.530Z,18.90
2023-12-22T12:32:47.616Z,25.70
2023-12-22T12:35:15.545Z,32.80
2023-12-22T12:37:42.583Z,29.20
2023-12-22T12:40:10.732Z,25.20
2023-12-22T12:42:38.778Z,16.30
2023-12-22T12:45:06.788Z,16.80
2023-12-22T12:47:34.056Z,19.10
2023-12-22T12:50:02.093Z,24.40
2023-12-22T12:54:58.922Z,15.80
2023-12-22T12:57:26.600Z,18.50
2023-12-22T12:59:53.653Z,14.10
2023-12-22T13:02:24.626Z,14.90
2023-12-22T13:04:51.946Z,15.90
2023-12-22T13:07:26.362Z,16.00
2023-12-22T13:09:54.897Z,13.60
2023-12-22T13:12:21.688Z,12.90
2023-12-22T13:14:48.414Z,11.20
2023-12-22T13:17:18.294Z,11.40
2023-12-22T13:19:45.343Z,12.10
2023-12-22T13:22:12.273Z,11.80
2023-12-22T13:24:39.375Z,11.30
2023-12-22T13:27:07.794Z,11.50
2023-12-22T13:29:45.427Z,11.10
2023-12-22T13:32:18.952Z,10.90
2023-12-22T13:34:50.787Z,11.20
2023-12-22T13:37:17.612Z,11.30
2023-12-22T13:39:46.503Z,9.70
2023-12-22T13:42:21.888Z,11.50
2023-12-22T13:44:49.931Z,11.70
2023-12-22T13:47:17.155Z,11.80
2023-12-22T13:49:44.553Z,11.90
2023-12-22T13:52:35.656Z,11.40
2023-12-22T13:55:03.087Z,10.50
2023-12-22T13:57:30.262Z,11.50
2023-12-22T13:59:56.821Z,11.30
2023-12-22T14:02:26.580Z,10.90
2023-12-22T14:04:53.701Z,10.20
2023-12-22T14:07:20.932Z,14.50
2023-12-22T14:09:48.082Z,11.40
2023-12-22T14:12:20.944Z,11.00
2023-12-22T14:14:52.141Z,12.20
2023-12-22T14:17:22.281Z,11.90
2023-12-22T14:19:52.548Z,10.80
2023-12-22T14:22:19.303Z,10.70
2023-12-22T14:24:46.182Z,11.50
2023-12-22T14:27:13.086Z,12.10
2023-12-22T14:29:45.483Z,12.30
2023-12-22T14:32:12.985Z,12.10
2023-12-22T14:34:39.711Z,12.80
2023-12-22T14:37:06.665Z,11.90
2023-12-22T14:39:34.320Z,11.10
2023-12-22T14:42:03.788Z,11.80
2023-12-22T14:44:31.063Z,11.10
2023-12-22T14:46:57.851Z,10.30
2023-12-22T14:49:24.894Z,11.80
2023-12-22T14:51:54.817Z,11.90
2023-12-22T14:54:22.440Z,10.80
2023-12-22T14:56:50.302Z,10.60
2023-12-22T14:59:18.274Z,12.00
2023-12-22T15:01:46.924Z,11.10
2023-12-22T15:04:17.070Z,12.40
2023-12-22T15:06:55.850Z,11.50
2023-12-22T15:09:28.450Z,13.00
2023-12-22T15:11:55.914Z,12.90
2023-12-22T15:14:23.032Z,13.00
2023-12-22T15:16:52.326Z,11.60
2023-12-22T15:19:20.476Z,12.40
2023-12-22T15:21:48.314Z,13.50
2023-12-22T15:24:15.434Z,13.50
2023-12-22T15:26:43.561Z,13.10
2023-12-22T15:29:11.062Z,13.00
2023-12-22T15:31:38.386Z,11.60
2023-12-22T15:34:06.276Z,11.40
2023-12-22T15:36:34.423Z,13.30
2023-12-22T15:39:03.505Z,11.20
2023-12-22T15:41:31.629Z,10.70
2023-12-22T15:43:58.540Z,11.80
2023-12-22T15:46:27.439Z,12.20
2023-12-22T15:48:54.596Z,11.70
2023-12-22T15:51:22.800Z,13.20
2023-12-22T15:53:50.368Z,12.90
2023-12-22T15:56:18.390Z,12.80
2023-12-22T15:58:46.542Z,12.40
2023-12-22T16:01:15.076Z,10.60
2023-12-22T16:03:42.510Z,13.50
2023-12-22T16:06:09.510Z,12.00
2023-12-22T16:08:36.442Z,11.20
2023-12-22T16:11:04.328Z,12.50
2023-12-22T16:13:32.687Z,10.80
2023-12-22T16:16:01.672Z,11.60
2023-12-22T16:18:29.296Z,12.90
2023-12-22T16:20:56.642Z,12.70
2023-12-22T16:23:23.557Z,13.20
2023-12-22T16:25:56.382Z,11.70
2023-12-22T16:28:24.274Z,14.00
2023-12-22T16:30:51.205Z,10.10
2023-12-22T16:33:18.483Z,10.60
2023-12-22T16:35:45.474Z,11.00
2023-12-22T16:38:12.302Z,9.20
2023-12-22T16:40:40.082Z,11.10
2023-12-22T16:43:06.986Z,8.90
2023-12-22T16:45:33.951Z,10.00
2023-12-22T16:48:01.956Z,11.20
2023-12-22T16:50:29.571Z,9.80
2023-12-22T16:52:57.142Z,8.10
2023-12-22T16:55:24.404Z,10.00
2023-12-22T16:57:51.432Z,10.70
2023-12-22T17:00:20.227Z,9.00
2023-12-22T17:02:47.517Z,11.70
2023-12-22T17:05:15.892Z,10.60
2023-12-22T17:07:46.113Z,7.70
2023-12-22T17:10:13.481Z,9.20
2023-12-22T17:12:41.458Z,10.30
2023-12-22T17:15:10.089Z,8.60
2023-12-22T17:17:37.818Z,11.50
2023-12-22T17:20:06.750Z,8.90
2023-12-22T17:22:34.047Z,10.60
2023-12-22T17:25:01.348Z,9.50
2023-12-22T17:27:28.178Z,10.80
2023-12-22T17:29:56.864Z,9.20
2023-12-22T17:32:27.354Z,7.40
2023-12-22T17:34:58.100Z,7.30
2023-12-22T17:37:25.620Z,7.90
2023-12-22T17:39:53.134Z,7.90
2023-12-22T17:42:21.738Z,7.80
2023-12-22T17:47:15.365Z,7.00
2023-12-22T17:49:42.230Z,5.90
2023-12-22T17:52:09.041Z,4.70
2023-12-22T17:54:36.044Z,7.40
2023-12-22T17:57:04.380Z,6.10
2023-12-22T17:59:31.284Z,8.50
2023-12-22T18:01:58.730Z,9.80
2023-12-22T18:04:26.708Z,7.90
2023-12-22T18:09:20.335Z,6.70
2023-12-22T18:11:47.826Z,5.60
2023-12-22T18:14:15.193Z,9.50
2023-12-22T18:16:42.778Z,7.40
2023-12-22T18:19:10.426Z,8.70
2023-12-22T18:21:38.070Z,8.30
2023-12-22T18:24:05.162Z,7.80
2023-12-22T18:26:32.037Z,10.90
2023-12-22T18:28:59.407Z,7.00
2023-12-22T18:31:26.617Z,8.90
2023-12-22T18:33:53.766Z,7.50
2023-12-22T18:36:20.938Z,7.00
2023-12-22T18:38:47.916Z,15.40
2023-12-22T18:41:15.040Z,7.40
2023-12-22T18:43:42.864Z,9.40
2023-12-22T18:48:36.772Z,8.90
2023-12-22T18:51:04.864Z,10.80
2023-12-22T18:53:32.103Z,9.40
2023-12-22T18:55:59.109Z,7.90
2023-12-22T18:58:29.360Z,7.20
2023-12-22T19:00:56.356Z,9.40
2023-12-22T19:03:24.359Z,9.40
2023-12-22T19:05:51.752Z,8.90
2023-12-22T19:08:19.285Z,9.00
2023-12-22T19:10:46.397Z,6.80
2023-12-22T19:13:14.492Z,8.50
2023-12-22T19:15:41.696Z,10.20
2023-12-22T19:18:08.485Z,7.10
2023-12-22T19:20:35.569Z,6.00
2023-12-22T19:23:02.862Z,8.20
2023-12-22T19:25:29.830Z,6.40
2023-12-22T19:27:57.771Z,10.30
2023-12-22T19:30:26.542Z,7.50
2023-12-22T19:32:53.418Z,7.20
2023-12-22T19:35:20.443Z,10.90
2023-12-22T19:37:47.806Z,7.30
2023-12-22T19:40:15.752Z,7.30
2023-12-22T19:42:42.732Z,12.00
2023-12-22T19:45:12.388Z,7.30
2023-12-22T19:47:39.433Z,7.50
2023-12-22T19:50:08.417Z,10.70
2023-12-22T19:52:36.562Z,5.10
2023-12-22T19:55:04.595Z,6.50
2023-12-22T19:57:32.635Z,8.10
2023-12-22T19:59:59.575Z,7.10
2023-12-22T20:02:27.289Z,6.20
2023-12-22T20:04:55.503Z,9.50
2023-12-22T20:07:22.558Z,5.80
2023-12-22T20:09:49.460Z,6.10
2023-12-22T20:12:16.175Z,9.30
2023-12-22T20:14:43.006Z,8.20
2023-12-22T20:17:10.194Z,7.70
2023-12-22T20:19:37.178Z,7.50
2023-12-22T20:22:07.439Z,8.80
2023-12-22T20:24:35.002Z,5.90
2023-12-22T20:27:01.755Z,7.10
2023-12-22T20:29:28.869Z,8.30
2023-12-22T20:31:56.261Z,9.70
2023-12-22T20:34:26.053Z,9.30
2023-12-22T20:36:52.943Z,8.60
2023-12-22T20:39:20.085Z,6.60
2023-12-22T20:41:48.158Z,7.20
2023-12-22T20:47:56.258Z,8.00
2023-12-22T20:50:25.268Z,7.30
2023-12-22T20:52:56.207Z,6.40
2023-12-22T20:55:24.222Z,7.80
2023-12-22T21:00:21.428Z,9.60
2023-12-22T21:02:49.186Z,7.90
2023-12-22T21:05:17.984Z,12.20
2023-12-22T21:07:45.749Z,12.00
2023-12-22T21:10:13.499Z,8.60
2023-12-22T21:12:43.746Z,9.70
2023-12-22T21:15:11.328Z,11.70
2023-12-22T21:17:40.030Z,10.70
2023-12-22T21:20:12.805Z,8.80
2023-12-22T21:22:40.722Z,5.90
2023-12-22T21:25:09.865Z,8.00
2023-12-22T21:27:37.732Z,9.30
2023-12-22T21:30:06.872Z,8.80
2023-12-22T21:32:34.663Z,10.00
2023-12-22T21:37:30.301Z,7.90
2023-12-22T21:39:58.028Z,7.60
2023-12-22T21:42:29.332Z,10.40
2023-12-22T21:44:57.446Z,11.00
2023-12-22T21:47:25.197Z,9.30
2023-12-22T21:52:21.539Z,9.10
2023-12-22T21:54:49.156Z,8.40
2023-12-22T21:57:17.242Z,9.70
2023-12-22T21:59:45.030Z,9.30
2023-12-22T22:04:43.677Z,7.60
2023-12-22T22:07:11.520Z,10.50
2023-12-22T22:12:08.152Z,9.10
2023-12-22T22:14:36.002Z,6.40
2023-12-22T22:17:04.133Z,8.60
2023-12-22T22:22:00.411Z,6.70
2023-12-22T22:24:27.956Z,9.10
2023-12-22T22:26:55.708Z,11.30
2023-12-22T22:29:23.581Z,8.50
2023-12-22T22:31:53.501Z,7.70
2023-12-22T22:34:21.599Z,9.90
2023-12-22T22:36:49.929Z,5.10
2023-12-22T22:39:17.678Z,7.70
2023-12-22T22:41:45.492Z,7.30
2023-12-22T22:46:41.657Z,4.80
2023-12-22T22:49:13.572Z,5.30
2023-12-22T22:51:42.018Z,8.80
2023-12-22T22:54:09.774Z,9.20
2023-12-22T22:56:43.187Z,7.40
2023-12-22T22:59:11.384Z,6.80
2023-12-22T23:04:07.156Z,6.90
2023-12-22T23:06:34.939Z,8.60
2023-12-22T23:09:03.594Z,7.60
2023-12-22T23:11:31.258Z,6.70
2023-12-22T23:13:59.069Z,7.40
2023-12-22T23:18:54.419Z,6.50
2023-12-22T23:28:46.534Z,7.00
2023-12-22T23:31:14.189Z,5.80
2023-12-22T23:33:41.937Z,10.20
2023-12-22T23:36:18.511Z,7.00
2023-12-22T23:38:55.286Z,8.10
2023-12-22T23:41:23.511Z,6.30
2023-12-22T23:43:51.324Z,10.30
2023-12-22T23:51:17.922Z,8.10
2023-12-22T23:53:46.391Z,5.90
2023-12-22T23:56:14.252Z,5.30
